Terminal Aerodrome Forecast
Issued by NWS Melbourne, FL

Home | Current Version | Previous Version | Text Only | Print | Product List | Glossary On
Versions: 1 2 3 4 5 6 7 8 9 10 11 12 13 14 15
000
FTUS42 KMLB 291100
TAFMLB
TAF
KMLB 291138Z 2912/3012 24005KT P6SM FEW040
     FM291400 22008KT P6SM SCT020 SCT250
     FM292000 16007KT P6SM SCT040 SCT250
     FM300100 21005KT P6SM SCT040 BKN250
     FM300800 24003KT 4SM BR SCT003 BKN010 OVC030=

USA.gov is the U.S. government's official web portal to all federal, state and local government web resources and services.